Terminal Aerodrome Forecast
Issued by NWS

Home | Current Version | Previous Version | Text Only | Print | Product List | Glossary On
Versions: 1 2 3 4 5 6 7 8 9 10 11 12 13 14 15 16 17 18 19 20
000
FTUS44 KLZK 280500 RRA
TAFPBF
TAF
KPBF 280541Z 2806/2906 05009KT P6SM SCT100
     FM281000 03012KT P6SM VCSH SCT050 OVC100
      TEMPO 2810/2814 5SM -RA BR OVC050
     FM281400 03013KT 4SM -RA BR SCT025 OVC050
      TEMPO 2814/2818 3SM -RA BR OVC015
     FM281800 02012KT 5SM -RA BR VCTS OVC025CB
     FM290200 35006KT P6SM SCT025 BKN050=

USA.gov is the U.S. government's official web portal to all federal, state and local government web resources and services.